Velkommen til

Stord Flyklubb

Om oss

Historien til Stord Flyklubb

Klubbens aner strekker seg tilbake til 1969 med sjøfly. Siden har vi sett vanlige motorfly og glidefly, men det er sportsfly som er hovedfokuset i dag

En kilometer vei vil ta deg en kilometer

En kilometer rullebane vil ta deg hvor enn du vil

Bli pilot

Alle kan lære å fly!

Ta en prøvetur hos oss og se hvor moro det er! Prøveturen gir deg en mulighet til å se om dette er noe du har lyst til å gå videre med.

Teorien tas av de fleste som hjemmeundervisning. Nytt læremateriell gjør opplæringen både enklere og mer strømlinjeformet.

Praksis kan påbegynnes mens man tar teorien, men teorien må være bestått før man kan fly solo. 

METAR Haugesund
ENHD 161350Z 34006KT CAVOK 10/M00 Q1033 ENHD 161320Z 34006KT CAVOK 09/01 Q1033 ENHD 161250Z 30005KT 280V340 CAVOK 09/01 Q1033 ENHD 161220Z AUTO 31007KT 280V340 9999 SCT110/// 09/M01 Q1033 ENHD 161150Z AUTO 30007KT 9999 FEW120/// 11/M01 Q1033 ENHD 161120Z AUTO 29006KT 9999 FEW064/// 09/M02 Q1033 TAF ENHD 161100Z 1612/1620 32008KT CAVOK
METAR Flesland
ENBR 161350Z 22008KT CAVOK 11/M03 Q1032 NOSIG RMK WIND 1200FT 15008KT ENBR 161320Z 24008KT CAVOK 11/M03 Q1033 NOSIG RMK WIND 1200FT 14010KT ENBR 161250Z 25008KT CAVOK 10/M04 Q1033 NOSIG RMK WIND 1200FT 13011KT ENBR 161220Z 23008KT CAVOK 11/M03 Q1033 NOSIG RMK WIND 1200FT 14010KT ENBR 161150Z 22009KT CAVOK 10/M04 Q1033 NOSIG RMK WIND 1200FT 14010KT ENBR 161120Z 24008KT 210V280 CAVOK 10/M03 Q1033 NOSIG RMK WIND 1200FT 13011KT TAF ENBR 1612/1712 25007KT CAVOK PROB40 1613/1618 32010KT